Time;durP1;ratioP1;P1;durP2;ratioP2;P2;SDS_P1;SDS_P2;PMS_P1;PMS_P2;Temp;Humidity;BMP_temperature;BMP_pressure;BME280_temperature;BME280_humidity;BME280_pressure;Samples;Min_cycle;Max_cycle;Signal;HPM_P1;HPM_P2
2022/06/28 00:01:59;;;;;;;4.90;2.20;;;26.00;99.90;;;;;;4957279;28;20202;-85
2022/06/28 00:04:26;;;;;;;5.70;2.20;;;26.00;99.90;;;;;;4961678;28;20953;-86
2022/06/28 00:06:53;;;;;;;5.65;2.60;;;26.00;99.90;;;;;;4961831;28;20224;-86
2022/06/28 00:09:21;;;;;;;7.80;2.63;;;25.90;99.90;;;;;;4959534;28;20926;-85
2022/06/28 00:11:48;;;;;;;8.85;2.30;;;25.90;99.90;;;;;;4957497;28;20209;-86
2022/06/28 00:17:02;;;;;;;7.68;1.90;;;25.90;99.90;;;;;;4959939;28;20209;-85
2022/06/28 00:19:29;;;;;;;7.25;2.42;;;25.90;99.90;;;;;;4960846;28;20228;-85
2022/06/28 00:21:57;;;;;;;5.18;1.95;;;25.90;99.90;;;;;;4961574;28;20268;-84
2022/06/28 00:24:24;;;;;;;4.78;2.28;;;25.90;99.90;;;;;;4964077;28;20253;-85
2022/06/28 00:26:51;;;;;;;3.58;1.83;;;25.90;99.90;;;;;;4962751;28;20218;-86
2022/06/28 00:29:19;;;;;;;5.18;2.13;;;25.80;99.90;;;;;;4965353;28;20225;-84
2022/06/28 00:31:46;;;;;;;7.25;2.38;;;25.90;99.90;;;;;;4964922;28;20208;-86
2022/06/28 00:34:14;;;;;;;4.43;2.28;;;25.80;99.90;;;;;;4965514;28;20225;-86
2022/06/28 00:36:42;;;;;;;6.00;2.47;;;25.80;99.90;;;;;;4963643;28;20250;-85
2022/06/28 00:39:09;;;;;;;5.28;2.08;;;25.70;99.90;;;;;;4959074;28;20310;-84
2022/06/28 00:41:37;;;;;;;6.40;2.30;;;25.70;99.90;;;;;;4963531;28;20724;-85
2022/06/28 00:44:05;;;;;;;4.18;2.10;;;25.70;99.90;;;;;;4962891;28;20225;-86
2022/06/28 00:46:34;;;;;;;5.47;2.35;;;25.70;99.90;;;;;;4961968;28;20200;-84
2022/06/28 00:49:01;;;;;;;5.05;2.08;;;25.70;99.90;;;;;;4960949;28;20245;-86
2022/06/28 00:51:31;;;;;;;8.85;2.55;;;25.70;99.90;;;;;;4966136;28;20229;-85
2022/06/28 00:53:58;;;;;;;4.10;1.80;;;25.70;99.90;;;;;;4960785;28;20233;-86
2022/06/28 00:56:26;;;;;;;5.22;1.95;;;25.60;99.90;;;;;;4961588;28;20591;-86
2022/06/28 00:58:55;;;;;;;9.18;2.33;;;25.60;99.90;;;;;;4961886;28;20289;-87
2022/06/28 01:01:22;;;;;;;3.97;1.90;;;25.60;99.90;;;;;;4965764;28;20256;-86
2022/06/28 01:03:50;;;;;;;8.23;2.40;;;25.50;99.90;;;;;;4961550;28;20700;-84
2022/06/28 01:06:17;;;;;;;7.32;1.70;;;25.50;99.90;;;;;;4961676;28;20858;-87
2022/06/28 01:08:46;;;;;;;7.30;2.33;;;25.50;99.90;;;;;;4965531;28;20750;-88
2022/06/28 01:11:20;;;;;;;5.70;2.08;;;25.50;99.90;;;;;;4962471;28;20226;-86
2022/06/28 01:13:48;;;;;;;6.90;1.90;;;25.40;99.90;;;;;;4960892;28;20329;-87
2022/06/28 01:16:16;;;;;;;6.13;2.35;;;25.30;99.90;;;;;;4962205;28;20712;-85
2022/06/28 01:18:44;;;;;;;7.75;2.25;;;25.40;99.90;;;;;;4958848;28;20218;-87
2022/06/28 01:21:13;;;;;;;5.35;2.33;;;25.40;99.90;;;;;;4962714;28;20322;-84
2022/06/28 01:23:42;;;;;;;6.57;2.67;;;25.40;99.90;;;;;;4960886;28;20225;-84
2022/06/28 01:26:10;;;;;;;7.38;2.25;;;25.40;99.90;;;;;;4958045;28;20203;-86
2022/06/28 01:28:38;;;;;;;7.32;2.53;;;25.30;99.90;;;;;;4960615;28;20229;-85
2022/06/28 01:31:05;;;;;;;8.00;2.13;;;25.30;99.90;;;;;;4962668;28;20214;-85
2022/06/28 01:33:33;;;;;;;7.80;2.35;;;25.30;99.90;;;;;;4962391;28;20229;-86
2022/06/28 01:36:00;;;;;;;5.63;2.33;;;25.30;99.90;;;;;;4960670;28;20225;-85
2022/06/28 01:38:27;;;;;;;5.95;2.53;;;25.30;99.90;;;;;;4966492;28;20236;-85
2022/06/28 01:40:56;;;;;;;5.53;2.40;;;25.30;99.90;;;;;;4963499;28;20542;-86
2022/06/28 01:43:24;;;;;;;7.55;2.35;;;25.30;99.90;;;;;;4964720;28;20228;-85
2022/06/28 01:45:52;;;;;;;7.30;2.45;;;25.30;99.90;;;;;;4963050;28;20205;-85
2022/06/28 01:48:20;;;;;;;7.18;2.33;;;25.30;99.90;;;;;;4958246;28;20213;-85
2022/06/28 01:50:47;;;;;;;3.28;2.10;;;25.30;99.90;;;;;;4966456;28;20204;-85
2022/06/28 01:53:15;;;;;;;6.75;2.60;;;25.20;99.90;;;;;;4960193;28;20201;-85
2022/06/28 01:55:43;;;;;;;5.15;2.00;;;25.20;99.90;;;;;;4962058;28;20218;-85
2022/06/28 01:58:12;;;;;;;6.40;2.38;;;25.20;99.90;;;;;;4966803;28;20205;-85
2022/06/28 02:00:39;;;;;;;6.40;2.13;;;25.20;99.90;;;;;;4967681;28;20236;-85
2022/06/28 02:03:07;;;;;;;7.03;2.28;;;25.20;99.90;;;;;;4963801;28;20264;-85
2022/06/28 02:05:35;;;;;;;5.55;2.30;;;25.20;99.90;;;;;;4955083;28;20195;-85
2022/06/28 02:08:02;;;;;;;6.65;2.50;;;25.10;99.90;;;;;;4963056;28;21115;-85
2022/06/28 02:10:29;;;;;;;5.60;2.67;;;25.20;99.90;;;;;;4959944;28;20228;-86
2022/06/28 02:12:57;;;;;;;4.35;2.35;;;25.10;99.90;;;;;;4965438;28;20206;-85
2022/06/28 02:15:25;;;;;;;6.72;2.55;;;25.10;99.90;;;;;;4957812;28;20222;-85
2022/06/28 02:17:52;;;;;;;4.25;1.77;;;25.10;99.90;;;;;;4967704;28;20209;-85
2022/06/28 02:20:19;;;;;;;5.68;2.42;;;25.00;99.90;;;;;;4965755;28;20221;-84
2022/06/28 02:22:46;;;;;;;4.40;2.30;;;25.00;99.90;;;;;;4965714;28;20201;-84
2022/06/28 02:25:13;;;;;;;5.85;2.00;;;25.00;99.90;;;;;;4961578;28;20236;-85
2022/06/28 02:27:40;;;;;;;4.95;2.22;;;24.90;99.90;;;;;;4964528;28;20250;-85
2022/06/28 02:30:09;;;;;;;4.95;2.20;;;24.90;99.90;;;;;;4967987;28;20221;-84
2022/06/28 02:32:37;;;;;;;5.30;2.08;;;24.90;99.90;;;;;;4968043;28;20217;-85
2022/06/28 02:40:34;;;;;;;7.32;2.83;;;24.80;99.90;;;;;;4964842;28;20245;-85
2022/06/28 02:43:02;;;;;;;7.32;2.75;;;24.80;99.90;;;;;;4964924;28;20202;-84
2022/06/28 02:45:31;;;;;;;6.30;2.55;;;24.80;99.90;;;;;;4959083;28;20237;-84
2022/06/28 02:48:00;;;;;;;7.72;2.30;;;24.90;99.90;;;;;;4966602;28;20295;-85
2022/06/28 02:50:28;;;;;;;7.47;2.97;;;24.80;99.90;;;;;;4964819;28;20673;-83
2022/06/28 02:52:55;;;;;;;8.60;2.33;;;24.80;99.90;;;;;;4966188;28;21537;-85
2022/06/28 02:55:22;;;;;;;4.57;2.05;;;24.80;99.90;;;;;;4965994;28;20221;-85
2022/06/28 02:57:49;;;;;;;6.00;2.60;;;24.80;99.90;;;;;;4962561;28;20261;-84
2022/06/28 03:00:19;;;;;;;6.13;2.42;;;24.80;99.90;;;;;;4966643;28;20244;-84
2022/06/28 03:02:47;;;;;;;4.07;1.98;;;24.80;99.90;;;;;;4965519;28;20209;-84
2022/06/28 03:05:18;;;;;;;4.20;2.10;;;24.80;99.90;;;;;;4964293;28;20218;-85
2022/06/28 03:07:46;;;;;;;5.97;2.50;;;24.80;99.90;;;;;;4966738;28;20205;-85
2022/06/28 03:10:13;;;;;;;6.65;2.28;;;24.70;99.90;;;;;;4961382;28;20229;-85
2022/06/28 03:12:41;;;;;;;7.68;2.40;;;24.70;99.90;;;;;;4968268;28;20208;-85
2022/06/28 03:15:09;;;;;;;6.68;2.42;;;24.70;99.90;;;;;;4971543;28;20361;-84
2022/06/28 03:17:36;;;;;;;5.43;2.20;;;24.70;99.90;;;;;;4968444;28;20336;-84
2022/06/28 03:20:04;;;;;;;4.90;2.40;;;24.70;99.90;;;;;;4962157;28;20226;-84
2022/06/28 03:22:33;;;;;;;6.65;2.42;;;24.70;99.90;;;;;;4964624;28;20201;-84
2022/06/28 03:25:00;;;;;;;5.20;2.85;;;24.60;99.90;;;;;;4967233;28;20722;-85
2022/06/28 03:27:27;;;;;;;4.15;2.22;;;24.60;99.90;;;;;;4968641;28;20366;-84
2022/06/28 03:29:54;;;;;;;5.65;2.75;;;24.60;99.90;;;;;;4970866;28;20232;-85
2022/06/28 03:32:21;;;;;;;5.63;2.40;;;24.60;99.90;;;;;;4966393;28;20209;-84
2022/06/28 03:34:48;;;;;;;6.88;2.53;;;24.60;99.90;;;;;;4965139;28;20225;-84
2022/06/28 03:37:15;;;;;;;5.93;2.63;;;24.60;99.90;;;;;;4959904;28;20222;-83
2022/06/28 03:39:44;;;;;;;8.10;2.47;;;24.50;99.90;;;;;;4966321;28;20241;-85
2022/06/28 03:42:11;;;;;;;6.57;2.30;;;24.50;99.90;;;;;;4962307;28;20210;-84
2022/06/28 03:44:38;;;;;;;6.30;2.70;;;24.50;99.90;;;;;;4967664;28;20217;-85
2022/06/28 03:47:07;;;;;;;6.50;2.42;;;24.50;99.90;;;;;;4969437;28;20200;-85
2022/06/28 03:49:34;;;;;;;5.10;2.10;;;24.40;99.90;;;;;;4966145;28;20229;-85
2022/06/28 03:52:01;;;;;;;7.72;2.85;;;24.50;99.90;;;;;;4958844;28;20225;-84
2022/06/28 03:54:29;;;;;;;12.80;3.00;;;24.40;99.90;;;;;;4964237;28;20225;-85
2022/06/28 03:56:57;;;;;;;4.78;1.80;;;24.50;99.90;;;;;;4962623;28;20707;-84
2022/06/28 03:59:24;;;;;;;6.60;2.05;;;24.40;99.90;;;;;;4958720;28;20218;-84
2022/06/28 04:01:51;;;;;;;5.88;2.58;;;24.50;99.90;;;;;;4963657;28;20206;-85
2022/06/28 04:04:18;;;;;;;4.55;2.33;;;24.50;99.90;;;;;;4957138;28;20221;-85
2022/06/28 04:06:46;;;;;;;6.57;2.33;;;24.50;99.90;;;;;;4965131;28;20245;-85
2022/06/28 04:09:13;;;;;;;4.68;2.13;;;24.50;99.90;;;;;;4964807;28;20225;-84
2022/06/28 04:11:40;;;;;;;7.65;2.53;;;24.60;99.90;;;;;;4963209;28;20615;-84
2022/06/28 04:14:13;;;;;;;4.90;2.28;;;24.60;99.90;;;;;;4965219;28;20232;-84
2022/06/28 04:16:41;;;;;;;4.78;2.30;;;24.60;99.90;;;;;;4966194;28;20249;-84
2022/06/28 04:19:08;;;;;;;5.97;2.33;;;24.60;99.90;;;;;;4966682;28;20221;-84
2022/06/28 04:21:35;;;;;;;5.32;2.55;;;24.60;99.90;;;;;;4964503;28;20206;-84
2022/06/28 04:24:02;;;;;;;8.02;2.65;;;24.70;99.90;;;;;;4962304;28;20232;-85
2022/06/28 04:26:29;;;;;;;3.80;2.13;;;24.70;99.90;;;;;;4969727;28;20198;-84
2022/06/28 04:28:56;;;;;;;7.45;2.80;;;24.70;99.90;;;;;;4966179;28;20226;-84
2022/06/28 04:31:25;;;;;;;6.68;2.30;;;24.70;99.90;;;;;;4962119;28;20205;-85
2022/06/28 04:33:52;;;;;;;7.18;2.38;;;24.70;99.90;;;;;;4966824;28;20226;-84
2022/06/28 04:36:19;;;;;;;5.35;2.28;;;24.70;99.90;;;;;;4958249;28;20233;-85
2022/06/28 04:38:47;;;;;;;5.22;2.20;;;24.80;99.90;;;;;;4957114;28;20203;-85
2022/06/28 04:41:14;;;;;;;6.40;2.60;;;24.90;99.90;;;;;;4959023;28;20264;-85
2022/06/28 04:43:41;;;;;;;4.72;2.00;;;25.00;99.90;;;;;;4962956;28;20200;-84
2022/06/28 04:46:08;;;;;;;6.55;2.25;;;25.00;99.90;;;;;;4965038;28;20216;-85
2022/06/28 04:48:37;;;;;;;6.38;2.28;;;25.10;99.90;;;;;;4957816;28;20222;-83
2022/06/28 04:51:11;;;;;;;7.07;2.88;;;25.20;99.90;;;;;;4957279;28;20214;-85
2022/06/28 04:53:39;;;;;;;7.07;2.58;;;25.20;99.90;;;;;;4962913;28;20229;-86
2022/06/28 04:56:07;;;;;;;5.07;2.72;;;25.30;99.90;;;;;;4962253;28;20688;-83
2022/06/28 04:58:34;;;;;;;4.55;2.17;;;25.40;99.90;;;;;;4968765;28;20205;-83
2022/06/28 05:01:01;;;;;;;4.45;2.35;;;25.40;99.90;;;;;;4960734;28;20229;-84
2022/06/28 05:03:28;;;;;;;6.90;3.67;;;25.40;99.90;;;;;;4958368;28;20220;-85
2022/06/28 05:05:57;;;;;;;4.95;2.10;;;25.30;99.90;;;;;;4960406;28;20229;-85
2022/06/28 05:08:24;;;;;;;4.53;2.50;;;25.30;99.90;;;;;;4964469;28;20198;-85
2022/06/28 05:10:51;;;;;;;4.95;2.42;;;25.40;99.90;;;;;;4966197;28;20225;-85
2022/06/28 05:13:19;;;;;;;5.82;2.60;;;25.50;99.90;;;;;;4964694;28;20281;-85
2022/06/28 05:15:46;;;;;;;3.67;2.45;;;25.70;99.90;;;;;;4959188;28;20720;-85
2022/06/28 05:18:13;;;;;;;5.85;2.40;;;25.70;99.90;;;;;;4964132;28;20639;-83
2022/06/28 05:20:40;;;;;;;6.38;2.85;;;25.70;99.90;;;;;;4968090;28;20217;-85
2022/06/28 05:23:09;;;;;;;5.68;2.95;;;25.60;99.90;;;;;;4965442;28;20544;-85
2022/06/28 05:25:36;;;;;;;6.78;3.13;;;25.60;99.90;;;;;;4959864;28;20218;-85
2022/06/28 05:28:03;;;;;;;8.35;2.95;;;25.60;99.90;;;;;;4965528;28;20272;-85
2022/06/28 05:30:30;;;;;;;4.78;2.88;;;25.60;99.90;;;;;;4967306;28;20220;-86
2022/06/28 05:32:57;;;;;;;8.55;3.03;;;25.60;99.90;;;;;;4967493;28;20292;-86
2022/06/28 05:35:25;;;;;;;4.45;2.25;;;25.50;99.90;;;;;;4959729;28;20236;-85
2022/06/28 05:37:52;;;;;;;8.38;3.45;;;25.40;99.90;;;;;;4963755;28;20638;-85
2022/06/28 05:40:21;;;;;;;6.97;3.50;;;25.40;99.90;;;;;;4966005;28;20228;-85
2022/06/28 05:42:48;;;;;;;5.90;2.78;;;25.40;99.90;;;;;;4967765;28;20230;-84
2022/06/28 05:45:15;;;;;;;5.80;3.22;;;25.50;99.90;;;;;;4963232;28;20225;-85
2022/06/28 05:47:42;;;;;;;4.30;2.40;;;25.50;99.90;;;;;;4964492;28;20691;-85
2022/06/28 05:50:09;;;;;;;6.93;2.78;;;25.50;99.90;;;;;;4964283;28;20246;-84
2022/06/28 05:52:37;;;;;;;6.43;2.97;;;25.70;99.90;;;;;;4957971;28;20206;-85
2022/06/28 05:55:04;;;;;;;6.55;2.83;;;25.90;99.90;;;;;;4960637;28;20238;-85
2022/06/28 05:57:33;;;;;;;7.75;3.65;;;26.10;99.90;;;;;;4959940;28;20218;-86
2022/06/28 06:00:00;;;;;;;8.10;3.35;;;26.10;99.90;;;;;;4961751;28;20237;-85
2022/06/28 06:02:27;;;;;;;6.88;3.20;;;25.90;99.90;;;;;;4958740;28;20614;-85
2022/06/28 06:04:55;;;;;;;10.45;3.30;;;25.90;99.90;;;;;;4962231;28;20322;-85
2022/06/28 06:07:22;;;;;;;6.53;3.40;;;25.90;99.90;;;;;;4957971;28;20202;-84
2022/06/28 06:09:49;;;;;;;7.78;3.58;;;25.90;99.90;;;;;;4957221;28;20237;-85
2022/06/28 06:12:17;;;;;;;7.55;3.72;;;25.90;99.90;;;;;;4958319;28;20205;-86
2022/06/28 06:14:46;;;;;;;8.63;3.58;;;25.90;99.90;;;;;;4960906;28;20225;-86
2022/06/28 06:17:13;;;;;;;7.88;3.42;;;25.90;99.90;;;;;;4959594;28;22059;-86
2022/06/28 06:19:40;;;;;;;9.93;3.72;;;25.90;99.90;;;;;;4955444;28;20217;-85
2022/06/28 06:22:07;;;;;;;6.60;3.22;;;25.90;99.90;;;;;;4954993;28;20258;-86
2022/06/28 06:24:34;;;;;;;5.60;3.25;;;26.00;99.90;;;;;;4954609;28;20230;-85
2022/06/28 06:27:02;;;;;;;8.77;3.42;;;26.00;99.90;;;;;;4950063;28;20628;-85
2022/06/28 06:29:29;;;;;;;8.32;4.03;;;26.10;99.90;;;;;;4958370;28;20457;-85
2022/06/28 06:31:58;;;;;;;10.32;4.10;;;26.20;99.90;;;;;;4961450;28;20201;-87
2022/06/28 06:34:25;;;;;;;7.97;3.45;;;26.30;99.90;;;;;;4960630;28;20303;-86
2022/06/28 06:36:52;;;;;;;9.82;3.45;;;26.30;99.90;;;;;;4962189;28;20257;-86
2022/06/28 06:39:20;;;;;;;9.75;4.25;;;26.20;99.90;;;;;;4956021;28;20598;-89
2022/06/28 06:41:47;;;;;;;8.93;3.90;;;26.20;99.90;;;;;;4967113;28;20444;-88
2022/06/28 06:44:14;;;;;;;8.43;3.72;;;26.20;99.90;;;;;;4962720;28;20197;-89
2022/06/28 06:46:41;;;;;;;7.18;3.40;;;26.20;99.90;;;;;;4966095;28;20639;-89
2022/06/28 06:49:14;;;;;;;8.20;3.88;;;26.20;99.90;;;;;;4960473;28;20208;-88
2022/06/28 06:51:44;;;;;;;6.93;3.40;;;26.50;99.90;;;;;;4959287;28;20607;-89
2022/06/28 06:54:11;;;;;;;10.82;3.78;;;26.60;99.90;;;;;;4946561;28;20201;-88
2022/06/28 06:56:40;;;;;;;6.45;3.50;;;26.70;99.90;;;;;;4962367;28;20558;-90
2022/06/28 06:59:07;;;;;;;9.23;3.10;;;26.80;99.90;;;;;;4966989;28;20212;-89
2022/06/28 07:01:35;;;;;;;8.00;3.75;;;26.90;99.90;;;;;;4960329;28;20217;-90
2022/06/28 07:04:02;;;;;;;5.93;3.40;;;27.00;99.90;;;;;;4959632;28;20206;-89
2022/06/28 07:06:31;;;;;;;7.10;3.72;;;27.10;99.90;;;;;;4960555;28;20213;-88
2022/06/28 07:08:58;;;;;;;6.60;3.20;;;27.30;99.90;;;;;;4961171;28;20205;-88
2022/06/28 07:11:25;;;;;;;9.63;3.97;;;27.50;99.90;;;;;;4959194;28;20312;-88
2022/06/28 07:13:53;;;;;;;11.10;4.00;;;27.60;99.90;;;;;;4958423;28;20204;-87
2022/06/28 07:16:20;;;;;;;8.82;3.70;;;27.70;99.90;;;;;;4955327;28;20225;-87
2022/06/28 07:18:47;;;;;;;9.23;4.07;;;27.80;99.90;;;;;;4959153;28;20217;-89
2022/06/28 07:21:14;;;;;;;9.15;3.88;;;27.80;99.90;;;;;;4961962;28;20233;-89
2022/06/28 07:23:43;;;;;;;7.30;3.45;;;27.70;99.90;;;;;;4960590;28;20209;-90
2022/06/28 07:26:11;;;;;;;9.45;3.90;;;27.80;99.90;;;;;;4961844;28;20217;-91
2022/06/28 07:28:38;;;;;;;7.50;3.70;;;27.90;99.90;;;;;;4962564;28;20194;-88
2022/06/28 07:31:05;;;;;;;5.60;2.97;;;28.20;99.90;;;;;;4961394;28;20236;-88
2022/06/28 07:33:32;;;;;;;10.65;3.70;;;28.40;99.90;;;;;;4965022;28;20265;-88
2022/06/28 07:36:00;;;;;;;7.90;3.78;;;28.40;99.90;;;;;;4959432;28;20261;-91
2022/06/28 07:38:29;;;;;;;11.43;4.10;;;28.40;99.90;;;;;;4959496;28;20250;-89
2022/06/28 07:40:58;;;;;;;7.07;3.83;;;28.50;99.90;;;;;;4963347;28;20276;-90
2022/06/28 07:43:26;;;;;;;6.93;3.58;;;28.50;99.90;;;;;;4958196;28;20289;-90
2022/06/28 07:45:53;;;;;;;10.05;3.50;;;28.70;99.90;;;;;;4962888;28;20284;-90
2022/06/28 07:48:20;;;;;;;8.48;3.42;;;28.90;99.90;;;;;;4957382;28;20201;-88
2022/06/28 07:53:33;;;;;;;7.97;3.53;;;28.60;99.90;;;;;;4953393;28;20201;-89
2022/06/28 07:56:02;;;;;;;8.20;3.70;;;28.30;99.90;;;;;;4965372;28;20284;-88
2022/06/28 07:58:30;;;;;;;9.57;3.55;;;28.40;99.90;;;;;;4958748;28;20256;-90
2022/06/28 08:00:57;;;;;;;5.97;3.67;;;28.40;99.90;;;;;;4956472;28;20229;-90
2022/06/28 08:03:24;;;;;;;6.63;3.40;;;28.40;99.90;;;;;;4963911;28;20205;-90
2022/06/28 08:05:51;;;;;;;7.15;3.60;;;28.40;99.90;;;;;;4960182;28;20700;-91
2022/06/28 08:08:18;;;;;;;6.95;3.13;;;28.20;99.90;;;;;;4961993;28;20205;-90
2022/06/28 08:10:46;;;;;;;6.18;3.40;;;28.00;99.90;;;;;;4957278;28;20230;-88
2022/06/28 08:13:16;;;;;;;7.13;3.22;;;27.90;99.90;;;;;;4959453;28;20205;-89
2022/06/28 08:15:43;;;;;;;8.68;3.95;;;27.90;99.90;;;;;;4958658;28;20225;-88
2022/06/28 08:18:11;;;;;;;7.57;3.58;;;27.90;99.90;;;;;;4959798;28;20236;-90
2022/06/28 08:20:38;;;;;;;8.82;3.33;;;28.10;99.90;;;;;;4953730;28;20225;-89
2022/06/28 08:23:06;;;;;;;5.35;3.35;;;28.20;99.90;;;;;;4954537;28;20205;-90
2022/06/28 08:25:33;;;;;;;8.63;3.90;;;28.40;99.90;;;;;;4955616;28;20601;-89
2022/06/28 08:28:00;;;;;;;8.05;3.25;;;28.50;99.90;;;;;;4960863;28;20648;-88
2022/06/28 08:30:29;;;;;;;7.07;3.17;;;28.60;99.90;;;;;;4963145;28;20234;-88
2022/06/28 08:32:57;;;;;;;10.05;3.70;;;28.60;99.90;;;;;;4959742;28;20197;-91
2022/06/28 08:35:24;;;;;;;5.88;3.60;;;28.50;99.90;;;;;;4958770;28;20225;-91
2022/06/28 08:37:52;;;;;;;9.52;3.47;;;28.50;99.90;;;;;;4962164;28;20826;-88
2022/06/28 08:40:21;;;;;;;10.50;3.55;;;28.80;99.90;;;;;;4957679;28;20224;-89
2022/06/28 08:42:53;;;;;;;9.52;3.80;;;29.20;99.90;;;;;;4958007;28;20248;-90
2022/06/28 08:45:20;;;;;;;5.80;3.75;;;29.50;99.90;;;;;;4958183;28;20314;-90
2022/06/28 08:47:52;;;;;;;13.38;4.63;;;29.50;99.90;;;;;;4964310;28;20201;-89
2022/06/28 08:50:37;;;;;;;7.85;4.07;;;29.40;99.90;;;;;;4958650;28;20231;-90
2022/06/28 08:53:07;;;;;;;9.85;3.63;;;29.10;99.90;;;;;;4955338;28;20217;-89
2022/06/28 08:55:36;;;;;;;10.75;4.13;;;28.80;99.90;;;;;;4957816;28;20330;-89
2022/06/28 08:58:06;;;;;;;11.18;3.95;;;28.60;99.90;;;;;;4961970;28;20597;-89
2022/06/28 09:00:34;;;;;;;8.30;3.83;;;28.70;99.90;;;;;;4956176;28;20229;-88
2022/06/28 09:03:02;;;;;;;6.35;3.83;;;28.80;99.90;;;;;;4958898;28;20987;-90
2022/06/28 09:05:30;;;;;;;8.85;4.45;;;28.60;99.90;;;;;;4962071;28;20222;-90
2022/06/28 09:07:58;;;;;;;8.15;3.58;;;28.40;99.90;;;;;;4960018;28;20221;-87
2022/06/28 09:10:26;;;;;;;6.93;3.65;;;28.30;99.90;;;;;;4956749;28;20336;-89
2022/06/28 09:13:06;;;;;;;5.47;3.42;;;28.30;99.90;;;;;;4960984;28;20198;-89
2022/06/28 09:15:47;;;;;;;5.70;3.10;;;28.40;99.90;;;;;;4951457;28;20229;-87
2022/06/28 09:18:16;;;;;;;7.22;3.72;;;28.60;99.90;;;;;;4956172;28;20220;-90
2022/06/28 09:20:44;;;;;;;6.53;3.28;;;28.80;99.90;;;;;;4953416;28;20222;-89
2022/06/28 09:23:29;;;;;;;13.32;4.25;;;29.00;99.90;;;;;;4956971;28;20341;-89
2022/06/28 09:25:58;;;;;;;9.20;3.53;;;29.20;99.90;;;;;;4958670;28;20228;-89
2022/06/28 09:28:28;;;;;;;9.43;3.78;;;29.30;99.90;;;;;;4957225;28;20209;-89
2022/06/28 09:31:17;;;;;;;9.63;3.83;;;29.20;99.90;;;;;;4954122;28;20354;-89
2022/06/28 09:33:48;;;;;;;7.05;3.42;;;29.20;99.90;;;;;;4959182;28;20196;-89
2022/06/28 09:36:17;;;;;;;7.25;2.80;;;29.20;99.90;;;;;;4960857;28;20253;-89
2022/06/28 09:38:44;;;;;;;9.15;3.60;;;29.10;99.90;;;;;;4959165;28;20217;-88
2022/06/28 09:41:26;;;;;;;7.97;3.67;;;29.10;99.90;;;;;;4953995;28;20221;-90
2022/06/28 09:44:03;;;;;;;7.82;3.40;;;29.00;99.90;;;;;;4955397;28;20292;-89
2022/06/28 09:46:32;;;;;;;8.60;3.70;;;29.10;99.90;;;;;;4958988;28;20224;-89
2022/06/28 09:49:03;;;;;;;11.93;4.15;;;29.00;99.90;;;;;;4948487;28;20204;-88
2022/06/28 09:51:32;;;;;;;6.30;3.70;;;29.00;99.90;;;;;;4953375;28;20228;-90
2022/06/28 09:54:03;;;;;;;6.53;3.33;;;28.90;99.90;;;;;;4952193;28;20230;-90
2022/06/28 09:56:34;;;;;;;9.38;3.42;;;28.90;99.90;;;;;;4960233;28;20221;-89
2022/06/28 09:59:02;;;;;;;8.02;3.53;;;28.90;99.90;;;;;;4954231;28;20243;-90
2022/06/28 10:01:31;;;;;;;7.80;3.78;;;28.80;99.90;;;;;;4956706;28;20222;-90
2022/06/28 10:04:01;;;;;;;6.80;3.60;;;28.90;99.90;;;;;;4953562;28;20572;-89
2022/06/28 10:06:28;;;;;;;7.75;3.33;;;29.00;99.90;;;;;;4949783;28;20707;-89
2022/06/28 10:08:55;;;;;;;10.77;4.13;;;29.10;99.90;;;;;;4955079;28;20212;-89
2022/06/28 10:11:22;;;;;;;8.32;4.20;;;29.20;99.90;;;;;;4955142;28;20218;-89
2022/06/28 10:16:46;;;;;;;7.07;3.38;;;29.60;99.90;;;;;;4958921;28;20404;-90
2022/06/28 10:19:17;;;;;;;8.50;3.60;;;30.00;99.90;;;;;;4959610;28;20316;-87
2022/06/28 10:21:46;;;;;;;9.13;3.92;;;30.20;99.90;;;;;;4951643;28;20312;-89
2022/06/28 10:24:15;;;;;;;6.88;3.75;;;30.20;99.90;;;;;;4955067;28;20570;-89
2022/06/28 10:26:46;;;;;;;9.35;4.15;;;30.10;99.90;;;;;;4934826;28;20314;-88
2022/06/28 10:29:15;;;;;;;7.88;3.88;;;30.20;99.90;;;;;;4956424;28;20216;-88
2022/06/28 10:31:44;;;;;;;7.97;3.85;;;30.00;99.90;;;;;;4954561;28;20241;-90
2022/06/28 10:34:13;;;;;;;7.13;3.55;;;29.80;99.90;;;;;;4953683;28;20195;-89
2022/06/28 10:36:53;;;;;;;6.75;3.30;;;30.00;99.90;;;;;;4952134;28;20228;-89
2022/06/28 10:39:25;;;;;;;9.68;3.85;;;30.20;99.90;;;;;;4954926;28;20228;-88
2022/06/28 10:41:54;;;;;;;10.23;3.92;;;30.10;99.90;;;;;;4955952;28;20228;-89
2022/06/28 10:44:24;;;;;;;8.57;3.42;;;30.40;99.90;;;;;;4955423;28;20568;-88
2022/06/28 10:46:57;;;;;;;7.53;3.45;;;30.40;99.90;;;;;;4953555;28;20770;-88
2022/06/28 10:49:24;;;;;;;6.70;3.33;;;30.40;99.90;;;;;;4955744;28;20194;-86
2022/06/28 10:52:14;;;;;;;6.20;3.30;;;30.40;99.90;;;;;;4959606;28;20217;-89
2022/06/28 10:55:03;;;;;;;6.47;3.85;;;30.40;99.90;;;;;;4955676;28;20584;-88
2022/06/28 10:57:36;;;;;;;6.95;4.10;;;30.50;99.90;;;;;;4958716;28;20312;-86
2022/06/28 11:00:06;;;;;;;8.32;3.03;;;30.50;99.90;;;;;;4952186;28;20699;-85
2022/06/28 11:02:47;;;;;;;9.23;3.65;;;30.60;99.90;;;;;;4958467;28;20233;-89
2022/06/28 11:05:14;;;;;;;9.73;3.45;;;30.90;99.90;;;;;;4953310;28;20288;-86
2022/06/28 11:07:56;;;;;;;8.77;3.50;;;31.00;99.90;;;;;;4958482;28;20206;-87
2022/06/28 11:10:23;;;;;;;10.73;3.38;;;31.00;99.90;;;;;;4959598;28;20201;-85
2022/06/28 11:12:51;;;;;;;7.85;3.10;;;30.90;99.90;;;;;;4958875;28;20216;-86
2022/06/28 11:15:35;;;;;;;7.57;3.78;;;30.80;99.90;;;;;;4955544;28;20191;-86
2022/06/28 11:18:02;;;;;;;9.43;3.72;;;30.60;99.90;;;;;;4957332;28;20208;-87
2022/06/28 11:20:31;;;;;;;6.55;3.30;;;30.40;99.90;;;;;;4961975;28;20197;-88
2022/06/28 11:23:00;;;;;;;5.40;3.20;;;30.40;99.90;;;;;;4960130;28;20220;-86
2022/06/28 11:27:19;;;;;;;9.65;3.40;;;30.50;99.90;;;;;;4958815;28;20205;-86
2022/06/28 11:28:15;;;;;;;8.10;3.17;;;30.70;99.90;;;;;;4956325;28;20198;-86
2022/06/28 11:30:43;;;;;;;7.35;3.53;;;30.70;99.90;;;;;;4954035;28;20242;-87
2022/06/28 11:33:12;;;;;;;7.55;3.70;;;30.60;99.90;;;;;;4957280;28;20197;-87
2022/06/28 11:35:40;;;;;;;7.35;3.67;;;30.60;99.90;;;;;;4953465;28;20412;-86
2022/06/28 11:38:11;;;;;;;8.40;3.33;;;30.50;99.90;;;;;;4958133;28;20233;-86
2022/06/28 11:40:43;;;;;;;9.85;3.72;;;30.20;99.90;;;;;;4953220;28;20229;-86
2022/06/28 11:43:12;;;;;;;9.85;4.18;;;30.10;99.90;;;;;;4950986;28;20205;-83
2022/06/28 11:45:41;;;;;;;12.32;3.90;;;30.00;99.90;;;;;;4952226;28;20233;-86
2022/06/28 11:48:12;;;;;;;6.72;3.60;;;29.90;99.90;;;;;;4954525;28;20382;-86
2022/06/28 11:50:42;;;;;;;8.02;3.92;;;29.90;99.90;;;;;;4953942;28;20241;-86
2022/06/28 11:53:11;;;;;;;10.00;4.10;;;29.70;99.90;;;;;;4953008;28;20293;-86
2022/06/28 11:55:40;;;;;;;6.45;3.47;;;29.50;99.90;;;;;;4951135;28;20236;-87
2022/06/28 11:58:15;;;;;;;6.90;3.50;;;29.40;99.90;;;;;;4956197;28;20202;-86
2022/06/28 12:01:00;;;;;;;8.05;3.15;;;29.20;99.90;;;;;;4959832;28;20296;-87
2022/06/28 12:03:28;;;;;;;10.27;3.53;;;29.10;99.90;;;;;;4962039;28;20285;-87
2022/06/28 12:05:57;;;;;;;10.15;4.22;;;29.10;99.90;;;;;;4957038;28;20221;-88
2022/06/28 12:08:42;;;;;;;7.53;3.22;;;29.10;99.90;;;;;;4960997;28;20198;-87
2022/06/28 12:11:24;;;;;;;10.52;4.20;;;29.00;99.90;;;;;;4956453;28;20750;-88
2022/06/28 12:13:56;;;;;;;8.18;3.20;;;28.80;99.90;;;;;;4960361;28;20193;-87
2022/06/28 12:16:23;;;;;;;9.18;3.50;;;28.70;99.90;;;;;;4952724;28;20234;-87
2022/06/28 12:18:54;;;;;;;10.13;4.03;;;28.80;99.90;;;;;;4953497;28;20225;-88
2022/06/28 12:21:21;;;;;;;8.77;3.88;;;28.70;99.90;;;;;;4955164;28;20221;-87
2022/06/28 12:23:51;;;;;;;6.93;3.70;;;28.70;99.90;;;;;;4959080;28;20720;-88
2022/06/28 12:26:19;;;;;;;8.35;3.63;;;28.90;99.90;;;;;;4957430;28;20221;-88
2022/06/28 12:28:46;;;;;;;6.35;3.13;;;29.00;99.90;;;;;;4957552;28;20194;-87
2022/06/28 12:31:13;;;;;;;5.35;2.78;;;29.00;99.90;;;;;;4955005;28;20221;-87
2022/06/28 12:33:40;;;;;;;5.40;2.85;;;29.20;99.90;;;;;;4961596;28;20288;-87
2022/06/28 12:36:08;;;;;;;11.52;3.63;;;29.40;99.90;;;;;;4952808;28;20225;-87
2022/06/28 12:38:35;;;;;;;12.77;3.90;;;29.40;99.90;;;;;;4959739;28;20222;-87
2022/06/28 12:41:04;;;;;;;9.10;3.50;;;29.40;99.90;;;;;;4955819;28;20229;-85
2022/06/28 12:43:31;;;;;;;8.63;3.47;;;29.30;99.90;;;;;;4958564;28;20201;-86
2022/06/28 12:45:58;;;;;;;7.68;3.60;;;29.20;99.90;;;;;;4955899;28;20716;-85
2022/06/28 12:48:25;;;;;;;7.13;3.17;;;29.20;99.90;;;;;;4955962;28;20217;-86
2022/06/28 12:50:52;;;;;;;7.95;3.05;;;29.30;99.90;;;;;;4958035;28;20232;-88
2022/06/28 12:53:20;;;;;;;6.78;2.75;;;29.40;99.90;;;;;;4957390;28;20205;-84
2022/06/28 12:55:47;;;;;;;5.45;3.20;;;29.30;99.90;;;;;;4960008;28;20206;-88
2022/06/28 12:58:16;;;;;;;6.88;3.40;;;29.20;99.90;;;;;;4952705;28;20209;-85
2022/06/28 13:00:44;;;;;;;7.32;3.30;;;29.10;99.90;;;;;;4956546;28;20198;-89
2022/06/28 13:03:11;;;;;;;6.57;2.78;;;29.00;99.90;;;;;;4957686;28;20289;-87
2022/06/28 13:05:38;;;;;;;6.03;2.63;;;28.90;99.90;;;;;;4956323;28;20272;-89
2022/06/28 13:08:07;;;;;;;10.32;3.50;;;28.80;99.90;;;;;;4956502;28;20213;-89